createdAt,value
2017-11-23T00:00:23.145Z,73.20
2017-11-23T00:01:30.118Z,73.21
2017-11-23T00:02:36.942Z,73.20
2017-11-23T00:03:43.916Z,73.21
2017-11-23T00:04:50.732Z,73.24
2017-11-23T00:05:57.603Z,73.24
2017-11-23T00:07:04.393Z,73.26
2017-11-23T00:08:11.313Z,73.26
2017-11-23T00:09:17.993Z,73.30
2017-11-23T00:10:24.916Z,73.32
2017-11-23T00:11:31.771Z,73.34
2017-11-23T00:12:38.659Z,73.33
2017-11-23T00:13:45.362Z,73.36
2017-11-23T00:14:52.214Z,73.41
2017-11-23T00:15:59.013Z,73.46
2017-11-23T00:17:05.909Z,73.48
2017-11-23T00:18:12.724Z,73.47
2017-11-23T00:19:19.622Z,73.39
2017-11-23T00:20:26.402Z,73.42
2017-11-23T00:21:33.474Z,73.45
2017-11-23T00:22:40.323Z,73.46
2017-11-23T00:23:47.313Z,73.52
2017-11-23T00:24:54.116Z,73.50
2017-11-23T00:26:00.922Z,73.49
2017-11-23T00:27:07.770Z,73.50
2017-11-23T00:28:14.608Z,73.50
2017-11-23T00:29:21.441Z,73.56
2017-11-23T00:30:28.149Z,73.57
2017-11-23T00:31:35.069Z,73.58
2017-11-23T00:32:41.781Z,73.53
2017-11-23T00:33:48.821Z,73.53
2017-11-23T00:34:55.637Z,73.53
2017-11-23T00:36:02.417Z,73.65
2017-11-23T00:37:09.218Z,73.72
2017-11-23T00:38:16.096Z,73.73
2017-11-23T00:39:22.958Z,73.76
2017-11-23T00:40:29.901Z,73.80
2017-11-23T00:41:36.833Z,73.76
2017-11-23T00:42:43.626Z,73.80
2017-11-23T00:43:50.572Z,73.79
2017-11-23T00:44:57.310Z,73.80
2017-11-23T00:46:04.065Z,73.84
2017-11-23T00:47:10.913Z,73.82
2017-11-23T00:48:18.160Z,73.83
2017-11-23T00:49:24.570Z,73.85
2017-11-23T00:50:31.505Z,73.87
2017-11-23T00:51:38.249Z,73.87
2017-11-23T00:52:44.954Z,73.87
2017-11-23T00:53:51.793Z,73.89
2017-11-23T00:54:58.574Z,73.96
2017-11-23T00:56:05.354Z,73.98
2017-11-23T00:57:12.165Z,74.02
2017-11-23T00:58:19.021Z,74.04
2017-11-23T00:59:25.917Z,74.09
2017-11-23T01:00:32.784Z,74.10
2017-11-23T01:01:39.477Z,74.13
2017-11-23T01:02:46.304Z,74.14
2017-11-23T01:03:53.122Z,74.12
2017-11-23T01:04:59.882Z,74.13
2017-11-23T01:06:06.717Z,74.17
2017-11-23T01:07:13.468Z,74.18
2017-11-23T01:08:20.252Z,74.22
2017-11-23T01:09:27.217Z,74.26
2017-11-23T01:10:34.078Z,74.27
2017-11-23T01:11:41.102Z,74.31
2017-11-23T01:12:48.004Z,74.32
2017-11-23T01:13:54.969Z,74.29
2017-11-23T01:15:01.727Z,74.34
2017-11-23T01:16:09.078Z,74.36
2017-11-23T01:17:15.912Z,74.40
2017-11-23T01:18:22.790Z,74.44
2017-11-23T01:19:29.575Z,74.45
2017-11-23T01:20:36.574Z,74.44
2017-11-23T01:21:43.321Z,74.46
2017-11-23T01:22:50.146Z,74.43
2017-11-23T01:23:57.110Z,74.50
2017-11-23T01:25:03.988Z,74.52
2017-11-23T01:26:10.753Z,74.58
2017-11-23T01:27:17.642Z,74.61
2017-11-23T01:28:24.392Z,74.65
2017-11-23T01:29:31.164Z,74.64
2017-11-23T01:30:37.953Z,74.65
2017-11-23T01:31:44.706Z,74.66
2017-11-23T01:32:51.551Z,74.68
2017-11-23T01:33:58.406Z,74.71
2017-11-23T01:35:05.238Z,74.66
2017-11-23T01:36:12.226Z,74.72
2017-11-23T01:37:19.089Z,74.75
2017-11-23T01:38:25.893Z,74.77
2017-11-23T01:39:32.725Z,74.80
2017-11-23T01:40:39.567Z,74.83
2017-11-23T01:41:46.240Z,74.84
2017-11-23T01:42:53.450Z,74.85
2017-11-23T01:44:00.442Z,74.85
2017-11-23T01:45:07.139Z,74.86
2017-11-23T01:46:13.943Z,74.94
2017-11-23T01:47:20.759Z,74.93
2017-11-23T01:48:27.682Z,74.94
2017-11-23T01:49:34.581Z,74.97
2017-11-23T01:50:41.341Z,74.96
2017-11-23T01:51:48.309Z,75.00
2017-11-23T01:52:55.618Z,75.01
2017-11-23T01:54:02.008Z,75.06
2017-11-23T01:55:08.911Z,75.09
2017-11-23T01:56:15.677Z,75.08
2017-11-23T01:57:22.495Z,75.11
2017-11-23T01:58:29.502Z,75.16
2017-11-23T01:59:36.473Z,75.22
2017-11-23T02:00:43.532Z,75.24
2017-11-23T02:01:50.185Z,75.30
2017-11-23T02:02:57.027Z,75.35
2017-11-23T02:04:03.827Z,75.39
2017-11-23T02:05:10.597Z,75.39
2017-11-23T02:06:17.433Z,75.41
2017-11-23T02:07:24.298Z,75.44
2017-11-23T02:08:31.085Z,75.41
2017-11-23T02:09:38.004Z,75.40
2017-11-23T02:10:44.870Z,75.37
2017-11-23T02:11:51.601Z,75.43
2017-11-23T02:12:58.522Z,75.49
2017-11-23T02:14:05.389Z,75.55
2017-11-23T02:15:12.269Z,75.58
2017-11-23T02:16:19.030Z,75.64
2017-11-23T02:17:26.118Z,75.66
2017-11-23T02:18:33.138Z,75.67
2017-11-23T02:19:40.022Z,75.67
2017-11-23T02:20:46.953Z,75.69
2017-11-23T02:21:53.995Z,75.70
2017-11-23T02:23:00.986Z,75.72
2017-11-23T02:24:07.982Z,75.75
2017-11-23T02:25:15.021Z,75.79
2017-11-23T02:26:22.106Z,75.80
2017-11-23T02:27:28.934Z,75.85
2017-11-23T02:28:35.987Z,75.87
2017-11-23T02:29:43.027Z,75.83
2017-11-23T02:30:50.085Z,75.85
2017-11-23T02:31:57.213Z,75.88
2017-11-23T02:33:04.233Z,75.94
2017-11-23T02:34:11.224Z,75.98
2017-11-23T02:35:18.249Z,76.03
2017-11-23T02:36:25.236Z,76.07
2017-11-23T02:37:32.218Z,76.09
2017-11-23T02:38:39.019Z,76.16
2017-11-23T02:39:45.849Z,76.20
2017-11-23T02:40:52.815Z,76.23
2017-11-23T02:41:59.775Z,76.23
2017-11-23T02:43:07.329Z,76.23
2017-11-23T02:44:13.650Z,76.23
2017-11-23T02:45:20.580Z,76.25
2017-11-23T02:46:27.408Z,76.31
2017-11-23T02:47:34.329Z,76.33
2017-11-23T02:48:41.298Z,76.36
2017-11-23T02:49:48.386Z,76.37
2017-11-23T02:50:55.445Z,76.39
2017-11-23T02:52:02.521Z,76.39
2017-11-23T02:53:09.337Z,76.41
2017-11-23T02:54:16.315Z,76.42
2017-11-23T02:55:23.117Z,76.43
2017-11-23T02:56:30.144Z,76.43
2017-11-23T02:57:37.178Z,76.46
2017-11-23T02:58:44.326Z,76.53
2017-11-23T02:59:51.202Z,76.54
2017-11-23T03:00:58.089Z,76.57
2017-11-23T03:02:05.158Z,76.59
2017-11-23T03:03:12.170Z,76.62
2017-11-23T03:04:19.511Z,76.69
2017-11-23T03:05:25.861Z,76.71
2017-11-23T03:06:32.807Z,76.72
2017-11-23T03:07:39.706Z,76.77
2017-11-23T03:08:46.450Z,76.79
2017-11-23T03:09:53.253Z,76.84
2017-11-23T03:11:00.061Z,76.82
2017-11-23T03:12:07.058Z,76.85
2017-11-23T03:13:13.822Z,76.85
2017-11-23T03:14:20.900Z,76.88
2017-11-23T03:15:27.749Z,76.88
2017-11-23T03:16:34.525Z,76.93
2017-11-23T03:17:41.475Z,76.97
2017-11-23T03:18:48.258Z,77.01
2017-11-23T03:19:55.322Z,77.04
2017-11-23T03:21:02.121Z,77.07
2017-11-23T03:22:09.098Z,77.06
2017-11-23T03:23:15.962Z,77.08
2017-11-23T03:24:22.817Z,77.10
2017-11-23T03:25:29.633Z,77.10
2017-11-23T03:26:36.394Z,77.14
2017-11-23T03:27:43.319Z,77.12
2017-11-23T03:28:50.092Z,77.14
2017-11-23T03:29:57.024Z,77.17
2017-11-23T03:31:04.052Z,77.18
2017-11-23T03:32:11.000Z,77.21
2017-11-23T03:33:17.867Z,77.22
2017-11-23T03:34:24.555Z,77.26
2017-11-23T03:35:31.397Z,77.27
2017-11-23T03:36:38.497Z,77.29
2017-11-23T03:37:45.313Z,77.36
2017-11-23T03:38:52.091Z,77.35
2017-11-23T03:39:59.031Z,77.37
2017-11-23T03:41:05.945Z,77.41
2017-11-23T03:42:12.811Z,77.45
2017-11-23T03:43:19.845Z,77.47
2017-11-23T03:44:26.680Z,77.49
2017-11-23T03:45:33.816Z,77.47
2017-11-23T03:46:40.878Z,77.46
2017-11-23T03:47:47.725Z,77.47
2017-11-23T03:48:54.714Z,77.49
2017-11-23T03:50:01.598Z,77.51
2017-11-23T03:51:08.322Z,77.54
2017-11-23T03:52:15.189Z,77.52
2017-11-23T03:53:22.049Z,77.56
2017-11-23T03:54:28.804Z,77.53
2017-11-23T03:55:35.598Z,77.53
2017-11-23T03:56:42.373Z,77.55
2017-11-23T03:57:49.326Z,77.56
2017-11-23T03:58:56.175Z,77.63
2017-11-23T04:00:02.942Z,77.69
2017-11-23T04:01:09.866Z,77.74
2017-11-23T04:02:16.729Z,77.76
2017-11-23T04:03:23.602Z,77.80
2017-11-23T04:04:30.457Z,77.83
2017-11-23T04:05:37.369Z,77.82
2017-11-23T04:06:44.177Z,77.85
2017-11-23T04:07:50.932Z,77.87
2017-11-23T04:08:57.625Z,77.86
2017-11-23T04:10:04.525Z,77.88
2017-11-23T04:11:11.445Z,77.88
2017-11-23T04:12:18.229Z,77.95
2017-11-23T04:13:25.177Z,77.98
2017-11-23T04:14:32.261Z,77.99
2017-11-23T04:15:39.334Z,78.00
2017-11-23T04:16:46.430Z,77.99
2017-11-23T04:17:53.296Z,78.00
2017-11-23T04:19:00.395Z,78.04
2017-11-23T04:20:07.166Z,78.06
2017-11-23T04:21:14.214Z,78.08
2017-11-23T04:22:20.933Z,78.09
2017-11-23T04:23:27.781Z,78.07
2017-11-23T04:24:34.891Z,78.10
2017-11-23T04:25:41.752Z,78.10
2017-11-23T04:26:48.770Z,78.12
2017-11-23T04:27:55.942Z,78.18
2017-11-23T04:29:02.839Z,78.19
2017-11-23T04:30:09.809Z,78.22
2017-11-23T04:31:16.806Z,78.25
2017-11-23T04:32:23.554Z,78.29
2017-11-23T04:33:30.484Z,78.30
2017-11-23T04:34:37.204Z,78.32
2017-11-23T04:35:44.095Z,78.29
2017-11-23T04:36:50.814Z,78.31
2017-11-23T04:37:57.633Z,78.31
2017-11-23T04:39:04.629Z,78.32
2017-11-23T04:40:11.450Z,78.35
2017-11-23T04:41:18.496Z,78.35
2017-11-23T04:42:25.473Z,78.37
2017-11-23T04:43:32.520Z,78.42
2017-11-23T04:44:39.417Z,78.44
2017-11-23T04:45:46.153Z,78.46
2017-11-23T04:46:52.954Z,78.49
2017-11-23T04:47:59.774Z,78.54
2017-11-23T04:49:06.697Z,78.60
2017-11-23T04:50:13.641Z,78.63
2017-11-23T04:51:20.508Z,78.65
2017-11-23T04:52:27.294Z,78.68
2017-11-23T04:53:34.141Z,78.72
2017-11-23T04:54:40.917Z,78.72
2017-11-23T04:55:47.614Z,78.75
2017-11-23T04:56:54.419Z,78.77
2017-11-23T04:58:01.213Z,78.76
2017-11-23T04:59:08.004Z,78.76
2017-11-23T05:00:14.778Z,78.80
2017-11-23T05:01:21.839Z,78.77
2017-11-23T05:02:28.628Z,78.78
2017-11-23T05:03:35.412Z,78.78
2017-11-23T05:04:42.196Z,78.84
2017-11-23T05:05:49.088Z,78.89
2017-11-23T05:06:56.088Z,78.89
2017-11-23T05:08:02.725Z,78.93
2017-11-23T05:09:09.529Z,78.98
2017-11-23T05:10:16.625Z,79.02
2017-11-23T05:11:23.543Z,78.99
2017-11-23T05:12:30.406Z,79.03
2017-11-23T05:13:37.148Z,79.05
2017-11-23T05:14:43.894Z,79.07
2017-11-23T05:15:50.889Z,79.10
2017-11-23T05:16:57.961Z,79.15
2017-11-23T05:18:04.773Z,79.20
2017-11-23T05:19:11.688Z,79.24
2017-11-23T05:20:18.455Z,79.28
2017-11-23T05:21:25.330Z,79.35
2017-11-23T05:22:32.314Z,79.37
2017-11-23T05:23:39.121Z,79.44
2017-11-23T05:24:45.938Z,79.51
2017-11-23T05:25:53.531Z,79.51
2017-11-23T05:27:00.019Z,79.60
2017-11-23T05:28:06.854Z,79.65
2017-11-23T05:29:13.617Z,79.72
2017-11-23T05:30:20.492Z,79.74
2017-11-23T05:31:27.273Z,79.77
2017-11-23T05:32:34.201Z,79.84
2017-11-23T05:33:41.037Z,79.87
2017-11-23T05:34:47.980Z,79.90
2017-11-23T05:35:54.854Z,79.96
2017-11-23T05:37:01.668Z,80.06
2017-11-23T05:38:08.393Z,80.13
2017-11-23T05:39:15.245Z,80.15
2017-11-23T05:40:22.126Z,80.22
2017-11-23T05:41:29.027Z,80.28
2017-11-23T05:42:35.929Z,80.34
2017-11-23T05:43:42.737Z,80.39
2017-11-23T05:44:49.610Z,80.42
2017-11-23T05:45:56.361Z,80.49
2017-11-23T05:47:03.442Z,80.54
2017-11-23T05:48:10.382Z,80.57
2017-11-23T05:49:17.098Z,80.67
2017-11-23T05:50:23.921Z,80.69
2017-11-23T05:51:30.846Z,80.78
2017-11-23T05:52:37.662Z,80.84
2017-11-23T05:53:44.578Z,80.87
2017-11-23T05:54:51.510Z,80.93
2017-11-23T05:55:58.273Z,80.99
2017-11-23T05:57:04.979Z,81.04
2017-11-23T05:58:11.769Z,81.07
2017-11-23T05:59:18.609Z,81.16
2017-11-23T06:00:25.436Z,81.19
2017-11-23T06:01:32.144Z,81.27
2017-11-23T06:02:39.329Z,81.36
2017-11-23T06:03:46.098Z,81.38
2017-11-23T06:04:53.119Z,81.45
2017-11-23T06:05:59.986Z,81.50
2017-11-23T06:07:06.886Z,81.56
2017-11-23T06:08:13.644Z,81.60
2017-11-23T06:09:20.618Z,81.67
2017-11-23T06:10:27.326Z,81.75
2017-11-23T06:11:34.209Z,81.82
2017-11-23T06:12:40.977Z,81.85
2017-11-23T06:13:47.700Z,81.91
2017-11-23T06:14:54.427Z,81.98
2017-11-23T06:16:01.266Z,82.04
2017-11-23T06:17:08.127Z,82.09
2017-11-23T06:18:14.942Z,82.16
2017-11-23T06:19:21.693Z,82.20
2017-11-23T06:20:28.468Z,82.28
2017-11-23T06:21:35.456Z,82.31
2017-11-23T06:22:42.290Z,82.36
2017-11-23T06:23:49.258Z,82.40
2017-11-23T06:24:55.999Z,82.46
2017-11-23T06:26:02.846Z,82.55
2017-11-23T06:27:09.674Z,82.60
2017-11-23T06:28:16.410Z,82.65
2017-11-23T06:29:23.254Z,82.72
2017-11-23T06:30:30.028Z,82.80
2017-11-23T06:31:36.773Z,82.85
2017-11-23T06:32:43.539Z,82.90
2017-11-23T06:33:50.339Z,82.92
2017-11-23T06:34:57.237Z,83.01
2017-11-23T06:36:04.270Z,83.06
2017-11-23T06:37:11.118Z,83.10
2017-11-23T06:38:17.885Z,83.17
2017-11-23T06:39:24.882Z,83.23
2017-11-23T06:40:31.772Z,83.28
2017-11-23T06:41:38.626Z,83.33
2017-11-23T06:42:45.407Z,83.37
2017-11-23T06:43:52.337Z,83.41
2017-11-23T06:44:59.265Z,83.47
2017-11-23T06:46:06.099Z,83.53
2017-11-23T06:47:12.842Z,83.58
2017-11-23T06:48:19.668Z,83.64
2017-11-23T06:49:26.468Z,83.70
2017-11-23T06:50:33.382Z,83.76
2017-11-23T06:51:40.354Z,83.78
2017-11-23T06:52:47.234Z,83.83
2017-11-23T06:53:53.984Z,83.89
2017-11-23T06:55:00.802Z,83.96
2017-11-23T06:56:07.504Z,83.98
2017-11-23T06:57:14.767Z,84.06
2017-11-23T06:58:21.672Z,84.09
2017-11-23T06:59:28.669Z,84.13
2017-11-23T07:00:35.558Z,84.21
2017-11-23T07:01:42.275Z,84.26
2017-11-23T07:02:49.081Z,84.31
2017-11-23T07:03:55.933Z,84.33
2017-11-23T07:05:02.750Z,84.38
2017-11-23T07:06:09.466Z,84.44
2017-11-23T07:07:16.250Z,84.51
2017-11-23T07:08:22.911Z,84.58
2017-11-23T07:09:29.678Z,84.59
2017-11-23T07:10:36.541Z,84.66
2017-11-23T07:11:43.283Z,84.73
2017-11-23T07:12:50.086Z,84.76
2017-11-23T07:13:56.857Z,84.84
2017-11-23T07:15:03.666Z,84.90
2017-11-23T07:16:10.422Z,84.96
2017-11-23T07:17:17.227Z,85.03
2017-11-23T07:18:24.058Z,85.06
2017-11-23T07:19:31.253Z,85.16
2017-11-23T07:20:38.210Z,85.20
2017-11-23T07:21:45.031Z,85.25
2017-11-23T07:22:51.812Z,85.32
2017-11-23T07:23:58.853Z,85.34
2017-11-23T07:25:05.805Z,85.41
2017-11-23T07:26:12.618Z,85.56
2017-11-23T07:27:19.549Z,85.61
2017-11-23T07:28:26.346Z,85.67
2017-11-23T07:29:33.514Z,85.70
2017-11-23T07:30:40.314Z,85.77
2017-11-23T07:31:47.262Z,85.80
2017-11-23T07:32:54.077Z,85.84
2017-11-23T07:34:00.910Z,85.94
2017-11-23T07:35:07.857Z,86.03
2017-11-23T07:36:14.656Z,86.10
2017-11-23T07:37:21.462Z,86.11
2017-11-23T07:38:28.469Z,86.18
2017-11-23T07:39:35.455Z,86.23
2017-11-23T07:40:42.297Z,86.31
2017-11-23T07:41:49.145Z,86.38
2017-11-23T07:42:55.999Z,86.44
2017-11-23T07:44:02.908Z,86.48
2017-11-23T07:45:09.871Z,86.54
2017-11-23T07:46:16.594Z,86.61
2017-11-23T07:47:23.462Z,86.63
2017-11-23T07:48:30.388Z,86.75
2017-11-23T07:49:37.284Z,86.81
2017-11-23T07:50:44.205Z,86.87
2017-11-23T07:51:51.266Z,86.91
2017-11-23T07:52:57.873Z,86.96
2017-11-23T07:54:04.725Z,87.00
2017-11-23T07:55:11.594Z,87.06
2017-11-23T07:56:18.274Z,87.17
2017-11-23T07:57:25.635Z,87.20
2017-11-23T07:58:32.379Z,87.26
2017-11-23T07:59:39.254Z,87.30
2017-11-23T08:00:46.161Z,87.37
2017-11-23T08:01:53.063Z,87.44
2017-11-23T08:03:00.053Z,87.50
2017-11-23T08:04:06.818Z,87.51
2017-11-23T08:05:13.627Z,87.60
2017-11-23T08:06:20.438Z,87.63
2017-11-23T08:07:27.182Z,87.68
2017-11-23T08:08:34.006Z,87.70
2017-11-23T08:09:40.665Z,87.76
2017-11-23T08:10:47.484Z,87.83
2017-11-23T08:11:54.311Z,87.83
2017-11-23T08:13:01.141Z,87.90
2017-11-23T08:14:08.082Z,87.95
2017-11-23T08:15:15.014Z,87.99
2017-11-23T08:16:22.136Z,88.07
2017-11-23T08:17:28.858Z,88.10
2017-11-23T08:18:35.897Z,88.12
2017-11-23T08:19:42.618Z,88.23
2017-11-23T08:20:49.415Z,88.25
2017-11-23T08:21:56.557Z,88.31
2017-11-23T08:23:03.359Z,88.36
2017-11-23T08:24:10.141Z,88.41
2017-11-23T08:25:16.849Z,88.49
2017-11-23T08:26:25.908Z,88.55
2017-11-23T08:27:30.690Z,88.59
2017-11-23T08:28:37.633Z,88.70
2017-11-23T08:29:44.484Z,88.74
2017-11-23T08:30:51.350Z,88.83
2017-11-23T08:31:58.077Z,88.92
2017-11-23T08:33:05.113Z,88.97
2017-11-23T08:34:11.999Z,89.05
2017-11-23T08:35:18.932Z,89.10
2017-11-23T08:36:25.764Z,89.18
2017-11-23T08:37:32.669Z,89.26
2017-11-23T08:38:39.461Z,89.32
2017-11-23T08:39:46.483Z,89.40
2017-11-23T08:40:53.164Z,89.48
2017-11-23T08:42:00.067Z,89.55
2017-11-23T08:43:07.178Z,89.64
2017-11-23T08:44:13.891Z,89.73
2017-11-23T08:45:20.767Z,89.80
2017-11-23T08:46:27.598Z,89.95
2017-11-23T08:47:34.333Z,90.09
2017-11-23T08:48:41.157Z,90.22
2017-11-23T08:49:48.043Z,90.32
2017-11-23T08:50:55.065Z,90.44
2017-11-23T08:52:01.704Z,90.53
2017-11-23T08:53:08.233Z,90.63
2017-11-23T08:54:15.335Z,90.70
2017-11-23T08:55:22.241Z,90.76
2017-11-23T08:56:29.283Z,90.86
2017-11-23T08:57:36.373Z,90.97
2017-11-23T08:58:43.091Z,91.05
2017-11-23T08:59:49.882Z,91.17
2017-11-23T09:00:56.683Z,91.25
2017-11-23T09:02:03.302Z,91.32
2017-11-23T09:03:10.464Z,91.43
2017-11-23T09:04:17.435Z,91.51
2017-11-23T09:05:24.311Z,91.62
2017-11-23T09:06:31.250Z,91.67
2017-11-23T09:07:38.177Z,91.77
2017-11-23T09:08:44.969Z,91.88
2017-11-23T09:09:51.938Z,91.99
2017-11-23T09:10:58.856Z,92.12
2017-11-23T09:12:05.992Z,92.22
2017-11-23T09:13:12.873Z,92.31
2017-11-23T09:14:19.732Z,92.42
2017-11-23T09:15:26.554Z,92.56
2017-11-23T09:16:33.316Z,92.67
2017-11-23T09:17:40.160Z,92.78
2017-11-23T09:18:47.030Z,92.90
2017-11-23T09:19:53.774Z,92.99
2017-11-23T09:21:00.497Z,93.09
2017-11-23T09:22:07.259Z,93.20
2017-11-23T09:23:13.962Z,93.26
2017-11-23T09:24:20.756Z,93.36
2017-11-23T09:25:27.488Z,93.44
2017-11-23T09:26:34.442Z,93.53
2017-11-23T09:27:41.433Z,93.63
2017-11-23T09:28:48.124Z,93.72
2017-11-23T09:29:54.906Z,93.80
2017-11-23T09:31:01.737Z,93.86
2017-11-23T09:32:08.514Z,93.95
2017-11-23T09:33:15.249Z,94.00
2017-11-23T09:34:22.043Z,94.09
2017-11-23T09:35:29.115Z,94.18
2017-11-23T09:36:35.860Z,94.29
2017-11-23T09:37:42.646Z,94.34
2017-11-23T09:38:49.503Z,94.45
2017-11-23T09:39:56.345Z,94.55
2017-11-23T09:41:03.126Z,94.60
2017-11-23T09:42:09.927Z,94.65
2017-11-23T09:43:16.777Z,94.76
2017-11-23T09:44:23.545Z,94.80
2017-11-23T09:45:30.554Z,94.87
2017-11-23T09:46:37.444Z,94.95
2017-11-23T09:47:44.210Z,95.02
2017-11-23T09:48:51.033Z,95.06
2017-11-23T09:49:57.999Z,95.14
2017-11-23T09:51:04.830Z,95.21
2017-11-23T09:52:11.713Z,95.28
2017-11-23T09:53:18.457Z,95.32
2017-11-23T09:54:25.248Z,95.37
2017-11-23T09:55:32.071Z,95.44
2017-11-23T09:56:38.968Z,95.50
2017-11-23T09:57:45.838Z,95.50
2017-11-23T09:58:52.718Z,95.58
2017-11-23T09:59:59.582Z,95.63
2017-11-23T10:01:06.450Z,95.67
2017-11-23T10:02:13.419Z,95.72
2017-11-23T10:03:20.346Z,95.76
2017-11-23T10:04:27.435Z,95.82
2017-11-23T10:05:34.199Z,95.83
2017-11-23T10:06:41.021Z,95.90
2017-11-23T10:07:47.963Z,95.96
2017-11-23T10:08:54.817Z,95.99
2017-11-23T10:10:01.661Z,96.04
2017-11-23T10:11:08.766Z,96.07
2017-11-23T10:12:15.693Z,96.13
2017-11-23T10:13:22.525Z,96.20
2017-11-23T10:14:29.342Z,96.22
2017-11-23T10:15:36.245Z,96.25
2017-11-23T10:16:43.323Z,96.29
2017-11-23T10:17:50.145Z,96.34
2017-11-23T10:18:57.249Z,96.37
2017-11-23T10:20:03.984Z,96.41
2017-11-23T10:21:10.937Z,96.45
2017-11-23T10:22:17.917Z,96.50
2017-11-23T10:23:24.774Z,96.52
2017-11-23T10:24:31.526Z,96.56
2017-11-23T10:25:38.426Z,96.60
2017-11-23T10:26:45.309Z,96.65
2017-11-23T10:27:52.166Z,96.67
2017-11-23T10:28:59.178Z,96.71
2017-11-23T10:30:05.954Z,96.76
2017-11-23T10:31:12.773Z,96.82
2017-11-23T10:32:19.722Z,96.86
2017-11-23T10:33:26.541Z,96.88
2017-11-23T10:34:33.327Z,96.92
2017-11-23T10:35:40.190Z,96.93
2017-11-23T10:36:47.022Z,96.94
2017-11-23T10:37:53.910Z,96.96
2017-11-23T10:39:00.677Z,97.00
2017-11-23T10:40:07.486Z,97.02
2017-11-23T10:41:14.392Z,97.02
2017-11-23T10:42:21.118Z,97.01
2017-11-23T10:43:28.120Z,97.02
2017-11-23T10:44:34.837Z,97.06
2017-11-23T10:45:41.599Z,97.06
2017-11-23T10:46:48.451Z,97.06
2017-11-23T10:47:55.190Z,97.08
2017-11-23T10:49:02.021Z,97.09
2017-11-23T10:50:08.915Z,97.08
2017-11-23T10:51:15.726Z,97.07
2017-11-23T10:52:22.697Z,97.09
2017-11-23T10:53:29.493Z,97.07
2017-11-23T10:54:36.242Z,97.09
2017-11-23T10:55:43.103Z,97.09
2017-11-23T10:56:49.878Z,97.08
2017-11-23T10:57:56.878Z,97.06
2017-11-23T10:59:03.662Z,97.11
2017-11-23T11:00:10.359Z,97.12
2017-11-23T11:01:17.293Z,97.14
2017-11-23T11:02:24.216Z,97.17
2017-11-23T11:03:31.115Z,97.19
2017-11-23T11:04:37.918Z,97.20
2017-11-23T11:05:44.910Z,97.22
2017-11-23T11:06:51.742Z,97.24
2017-11-23T11:07:58.603Z,97.20
2017-11-23T11:09:05.359Z,97.22
2017-11-23T11:10:12.105Z,97.20
2017-11-23T11:11:18.990Z,97.21
2017-11-23T11:12:25.674Z,97.21
2017-11-23T11:13:32.495Z,97.20
2017-11-23T11:14:39.319Z,97.20
2017-11-23T11:15:46.010Z,97.20
2017-11-23T11:16:52.937Z,97.19
2017-11-23T11:17:59.845Z,97.15
2017-11-23T11:19:06.569Z,97.17
2017-11-23T11:20:13.407Z,97.13
2017-11-23T11:21:20.198Z,97.13
2017-11-23T11:22:27.133Z,97.12
2017-11-23T11:23:33.854Z,97.10
2017-11-23T11:24:40.675Z,97.09
2017-11-23T11:25:47.650Z,97.09
2017-11-23T11:26:54.512Z,97.09
2017-11-23T11:28:01.395Z,97.08
2017-11-23T11:29:08.094Z,97.07
2017-11-23T11:30:15.132Z,97.05
2017-11-23T11:31:21.967Z,97.02
2017-11-23T11:32:28.722Z,97.02
2017-11-23T11:33:35.635Z,97.00
2017-11-23T11:34:42.398Z,97.00
2017-11-23T11:35:49.186Z,96.98
2017-11-23T11:36:56.026Z,96.96
2017-11-23T11:38:02.860Z,96.96
2017-11-23T11:39:09.785Z,96.96
2017-11-23T11:40:16.578Z,96.98
2017-11-23T11:41:23.495Z,96.95
2017-11-23T11:42:30.365Z,96.96
2017-11-23T11:43:37.363Z,96.94
2017-11-23T11:44:44.082Z,96.94
2017-11-23T11:45:51.361Z,96.92
2017-11-23T11:46:58.328Z,96.92
2017-11-23T11:48:05.158Z,96.90
2017-11-23T11:49:12.006Z,96.88
2017-11-23T11:50:18.930Z,96.88
2017-11-23T11:51:25.759Z,96.87
2017-11-23T11:52:32.665Z,96.84
2017-11-23T11:53:39.430Z,96.84
2017-11-23T11:54:46.266Z,96.83
2017-11-23T11:55:53.190Z,96.83
2017-11-23T11:56:59.918Z,96.81
2017-11-23T11:58:06.759Z,96.79
2017-11-23T11:59:13.466Z,96.78
2017-11-23T12:00:20.147Z,96.76
2017-11-23T12:01:27.217Z,96.75
2017-11-23T12:02:34.286Z,96.72
2017-11-23T12:03:41.041Z,96.74
2017-11-23T12:04:48.054Z,96.74
2017-11-23T12:05:54.814Z,96.75
2017-11-23T12:07:01.806Z,96.78
2017-11-23T12:08:08.726Z,96.81
2017-11-23T12:09:15.538Z,96.81
2017-11-23T12:10:22.328Z,96.80
2017-11-23T12:11:29.221Z,96.79
2017-11-23T12:12:35.993Z,96.77
2017-11-23T12:13:42.911Z,96.76
2017-11-23T12:14:49.933Z,96.75
2017-11-23T12:15:57.029Z,96.74
2017-11-23T12:17:04.159Z,96.76
2017-11-23T12:18:11.255Z,96.75
2017-11-23T12:19:18.099Z,96.72
2017-11-23T12:20:24.846Z,96.74
2017-11-23T12:21:31.933Z,96.75
2017-11-23T12:22:38.901Z,96.73
2017-11-23T12:23:45.934Z,96.73
2017-11-23T12:24:52.597Z,96.75
2017-11-23T12:25:59.680Z,96.72
2017-11-23T12:27:06.777Z,96.71
2017-11-23T12:28:13.692Z,96.71
2017-11-23T12:29:20.578Z,96.74
2017-11-23T12:30:27.496Z,96.70
2017-11-23T12:31:34.372Z,96.71
2017-11-23T12:32:41.237Z,96.70
2017-11-23T12:33:47.930Z,96.67
2017-11-23T12:34:54.825Z,96.66
2017-11-23T12:36:01.733Z,96.61
2017-11-23T12:37:08.526Z,96.61
2017-11-23T12:38:15.361Z,96.59
2017-11-23T12:39:22.322Z,96.58
2017-11-23T12:40:29.081Z,96.57
2017-11-23T12:41:35.898Z,96.55
2017-11-23T12:42:42.671Z,96.54
2017-11-23T12:43:51.766Z,96.52
2017-11-23T12:44:56.685Z,96.49
2017-11-23T12:46:03.525Z,96.46
2017-11-23T12:47:10.309Z,96.44
2017-11-23T12:48:17.428Z,96.42
2017-11-23T12:49:24.379Z,96.38
2017-11-23T12:50:31.299Z,96.35
2017-11-23T12:51:38.256Z,96.33
2017-11-23T12:52:45.161Z,96.28
2017-11-23T12:53:52.013Z,96.26
2017-11-23T12:54:58.875Z,96.22
2017-11-23T12:56:05.997Z,96.20
2017-11-23T12:57:12.941Z,96.15
2017-11-23T12:58:19.881Z,96.15
2017-11-23T12:59:26.748Z,96.12
2017-11-23T13:00:33.617Z,96.08
2017-11-23T13:01:40.390Z,96.07
2017-11-23T13:02:47.285Z,96.00
2017-11-23T13:03:54.113Z,95.96
2017-11-23T13:05:00.991Z,95.91
2017-11-23T13:06:08.063Z,95.88
2017-11-23T13:07:15.054Z,95.81
2017-11-23T13:08:22.065Z,95.75
2017-11-23T13:09:28.834Z,95.74
2017-11-23T13:10:35.690Z,95.72
2017-11-23T13:11:42.598Z,95.67
2017-11-23T13:12:49.336Z,95.64
2017-11-23T13:13:56.124Z,95.61
2017-11-23T13:15:02.943Z,95.57
2017-11-23T13:16:09.794Z,95.53
2017-11-23T13:17:16.731Z,95.47
2017-11-23T13:18:23.598Z,95.46
2017-11-23T13:19:30.458Z,95.44
2017-11-23T13:20:37.146Z,95.41
2017-11-23T13:21:43.997Z,95.41
2017-11-23T13:22:51.037Z,95.40
2017-11-23T13:23:58.478Z,95.37
2017-11-23T13:25:04.862Z,95.34
2017-11-23T13:26:12.119Z,95.33
2017-11-23T13:27:18.335Z,95.27
2017-11-23T13:28:25.121Z,95.27
2017-11-23T13:29:32.085Z,95.25
2017-11-23T13:30:39.039Z,95.24
2017-11-23T13:31:46.429Z,95.17
2017-11-23T13:32:52.700Z,95.14
2017-11-23T13:33:59.982Z,95.11
2017-11-23T13:35:06.774Z,95.11
2017-11-23T13:36:13.546Z,95.04
2017-11-23T13:37:20.386Z,94.99
2017-11-23T13:38:27.358Z,94.96
2017-11-23T13:39:34.260Z,94.90
2017-11-23T13:40:41.678Z,94.85
2017-11-23T13:41:48.274Z,94.81
2017-11-23T13:42:55.125Z,94.72
2017-11-23T13:44:02.074Z,94.66
2017-11-23T13:45:08.847Z,94.63
2017-11-23T13:46:17.845Z,94.57
2017-11-23T13:47:22.430Z,94.51
2017-11-23T13:48:29.353Z,94.47
2017-11-23T13:49:36.277Z,94.41
2017-11-23T13:50:43.097Z,94.36
2017-11-23T13:51:49.958Z,94.26
2017-11-23T13:52:56.966Z,94.24
2017-11-23T13:54:03.963Z,94.17
2017-11-23T13:55:10.932Z,94.13
2017-11-23T13:56:17.986Z,94.09
2017-11-23T13:57:24.868Z,94.03
2017-11-23T13:58:31.867Z,93.98
2017-11-23T13:59:38.534Z,93.93
2017-11-23T14:00:45.416Z,93.84
2017-11-23T14:01:52.394Z,93.76
2017-11-23T14:02:59.361Z,93.71
2017-11-23T14:04:06.285Z,93.63
2017-11-23T14:05:13.376Z,93.60
2017-11-23T14:06:20.260Z,93.51
2017-11-23T14:07:27.328Z,93.44
2017-11-23T14:08:34.271Z,93.37
2017-11-23T14:09:41.390Z,93.22
2017-11-23T14:10:48.118Z,93.15
2017-11-23T14:11:54.898Z,93.05
2017-11-23T14:13:01.822Z,92.95
2017-11-23T14:14:08.721Z,92.87
2017-11-23T14:15:15.635Z,92.74
2017-11-23T14:16:22.533Z,92.64
2017-11-23T14:17:29.432Z,92.56
2017-11-23T14:18:36.226Z,92.49
2017-11-23T14:19:43.082Z,92.40
2017-11-23T14:20:49.952Z,92.32